Terminal Aerodrome Forecast
Issued by NWS

Home | Current Version | Previous Version | Text Only | Print | Product List | Glossary On
Versions: 1 2 3 4 5 6 7 8 9 10 11 12 13 14 15
000
FTUS42 TJSJ 301100
TAFJPS
TAF
TJPS 301120Z 3012/3112 00000KT P6SM FEW030
     FM301430 13012KT P6SM SCT030 SCT060
     FM302330 07004KT P6SM FEW030
      AMD NOT SKED TIL 310300=

USA.gov is the U.S. government's official web portal to all federal, state and local government web resources and services.